createdAt,value
2019-01-23T00:00:40.979Z,98664.94
2019-01-23T00:01:30.940Z,98667.13
2019-01-23T00:02:06.610Z,98668.09
2019-01-23T00:02:42.087Z,98666.47
2019-01-23T00:03:17.804Z,98658.15
2019-01-23T00:03:53.255Z,98659.87
2019-01-23T00:04:28.680Z,98665.45
2019-01-23T00:05:04.393Z,98662.42
2019-01-23T00:05:39.821Z,98663.38
2019-01-23T00:06:15.336Z,98667.61
2019-01-23T00:06:51.067Z,98662.47
2019-01-23T00:07:26.506Z,98662.73
2019-01-23T00:08:01.979Z,98661.25
2019-01-23T00:08:37.411Z,98664.09
2019-01-23T00:09:13.102Z,98662.50
2019-01-23T00:09:48.811Z,98654.98
2019-01-23T00:10:24.642Z,98655.34
2019-01-23T00:11:00.644Z,98660.85
2019-01-23T00:11:36.631Z,98653.31
2019-01-23T00:12:12.092Z,98653.94
2019-01-23T00:12:47.525Z,98652.41
2019-01-23T00:13:23.010Z,98658.86
2019-01-23T00:13:58.428Z,98650.14
2019-01-23T00:14:33.854Z,98656.98
2019-01-23T00:15:09.974Z,98659.55
2019-01-23T00:15:46.318Z,98648.23
2019-01-23T00:16:21.745Z,98651.23
2019-01-23T00:16:57.486Z,98654.16
2019-01-23T00:17:32.920Z,98651.63
2019-01-23T00:18:08.699Z,98652.69
2019-01-23T00:18:44.158Z,98652.34
2019-01-23T00:19:19.582Z,98651.97
2019-01-23T00:19:55.010Z,98649.41
2019-01-23T00:20:30.715Z,98654.67
2019-01-23T00:21:06.712Z,98654.28
2019-01-23T00:21:42.445Z,98645.09
2019-01-23T00:22:18.130Z,98658.80
2019-01-23T00:22:53.807Z,98653.28
2019-01-23T00:23:29.670Z,98653.89
2019-01-23T00:24:05.300Z,98654.75
2019-01-23T00:24:41.019Z,98653.78
2019-01-23T00:25:16.796Z,98647.61
2019-01-23T00:25:52.223Z,98654.06
2019-01-23T00:26:27.915Z,98650.94
2019-01-23T00:27:03.360Z,98647.14
2019-01-23T00:27:39.090Z,98648.99
2019-01-23T00:28:14.558Z,98651.60
2019-01-23T00:28:49.996Z,98650.42
2019-01-23T00:29:25.441Z,98651.19
2019-01-23T00:30:01.204Z,98651.17
2019-01-23T00:30:36.629Z,98647.01
2019-01-23T00:31:12.062Z,98636.07
2019-01-23T00:31:47.482Z,98646.37
2019-01-23T00:32:22.909Z,98639.47
2019-01-23T00:32:58.633Z,98647.53
2019-01-23T00:33:34.107Z,98641.80
2019-01-23T00:34:09.560Z,98648.17
2019-01-23T00:34:45.006Z,98647.74
2019-01-23T00:35:20.730Z,98642.38
2019-01-23T00:35:56.182Z,98645.81
2019-01-23T00:36:31.899Z,98645.79
2019-01-23T00:37:07.655Z,98643.63
2019-01-23T00:37:43.083Z,98641.11
2019-01-23T00:38:19.814Z,98644.01
2019-01-23T00:38:55.532Z,98644.34
2019-01-23T00:39:30.975Z,98642.73
2019-01-23T00:40:07.534Z,98640.72
2019-01-23T00:40:42.984Z,98634.44
2019-01-23T00:41:18.471Z,98633.55
2019-01-23T00:41:53.905Z,98629.80
2019-01-23T00:42:29.352Z,98633.80
2019-01-23T00:43:05.117Z,98643.83
2019-01-23T00:43:40.853Z,98632.64
2019-01-23T00:44:16.280Z,98636.52
2019-01-23T00:44:51.746Z,98633.66
2019-01-23T00:45:27.189Z,98634.49
2019-01-23T00:46:02.629Z,98638.47
2019-01-23T00:46:38.139Z,98633.77
2019-01-23T00:47:13.920Z,98636.77
2019-01-23T00:47:49.770Z,98645.61
2019-01-23T00:48:25.779Z,98632.23
2019-01-23T00:49:01.230Z,98636.34
2019-01-23T00:49:36.675Z,98633.00
2019-01-23T00:50:13.305Z,98636.86
2019-01-23T00:50:49.054Z,98639.53
2019-01-23T00:51:24.501Z,98625.63
2019-01-23T00:51:59.961Z,98630.69
2019-01-23T00:52:35.394Z,98631.13
2019-01-23T00:53:10.850Z,98629.16
2019-01-23T00:53:46.329Z,98627.34
2019-01-23T00:54:21.774Z,98627.37
2019-01-23T00:54:57.216Z,98633.64
2019-01-23T00:55:32.641Z,98628.56
2019-01-23T00:56:08.687Z,98628.44
2019-01-23T00:56:44.669Z,98635.53
2019-01-23T00:57:20.113Z,98629.16
2019-01-23T00:57:55.547Z,98626.58
2019-01-23T00:58:31.343Z,98632.14
2019-01-23T00:59:06.907Z,98631.61
2019-01-23T00:59:42.589Z,98628.05
2019-01-23T01:00:20.989Z,98623.08
2019-01-23T01:00:56.407Z,98623.38
2019-01-23T01:01:31.878Z,98625.45
2019-01-23T01:02:07.867Z,98626.06
2019-01-23T01:02:43.587Z,98620.83
2019-01-23T01:03:19.337Z,98625.09
2019-01-23T01:03:54.822Z,98625.58
2019-01-23T01:04:30.248Z,98621.26
2019-01-23T01:05:06.458Z,98610.72
2019-01-23T01:05:41.897Z,98618.73
2019-01-23T01:06:17.323Z,98614.34
2019-01-23T01:06:53.297Z,98618.14
2019-01-23T01:07:29.307Z,98616.00
2019-01-23T01:08:05.150Z,98615.48
2019-01-23T01:08:40.613Z,98614.53
2019-01-23T01:09:16.054Z,98617.56
2019-01-23T01:09:51.761Z,98614.67
2019-01-23T01:10:27.753Z,98615.11
2019-01-23T01:11:03.444Z,98617.61
2019-01-23T01:11:38.866Z,98613.92
2019-01-23T01:12:14.728Z,98619.58
2019-01-23T01:12:50.165Z,98618.02
2019-01-23T01:13:25.619Z,98614.63
2019-01-23T01:14:01.109Z,98609.44
2019-01-23T01:14:36.647Z,98615.50
2019-01-23T01:15:13.544Z,98611.80
2019-01-23T01:15:49.181Z,98616.03
2019-01-23T01:16:24.630Z,98615.92
2019-01-23T01:17:00.067Z,98615.66
2019-01-23T01:17:35.513Z,98611.25
2019-01-23T01:18:11.214Z,98616.39
2019-01-23T01:18:46.963Z,98606.20
2019-01-23T01:19:22.398Z,98607.96
2019-01-23T01:19:57.829Z,98609.14
2019-01-23T01:20:33.510Z,98610.84
2019-01-23T01:21:08.996Z,98616.82
2019-01-23T01:21:44.426Z,98599.27
2019-01-23T01:22:19.872Z,98615.63
2019-01-23T01:22:55.429Z,98604.13
2019-01-23T01:23:31.152Z,98609.43
2019-01-23T01:24:06.899Z,98609.19
2019-01-23T01:24:42.324Z,98605.77
2019-01-23T01:25:18.386Z,98569.28
2019-01-23T01:25:53.851Z,98601.89
2019-01-23T01:26:29.640Z,98607.80
2019-01-23T01:27:05.550Z,98599.80
2019-01-23T01:27:41.268Z,98601.45
2019-01-23T01:28:17.004Z,98605.41
2019-01-23T01:28:56.139Z,98604.12
2019-01-23T01:29:30.069Z,98597.67
2019-01-23T01:30:08.662Z,98603.80
2019-01-23T01:30:44.161Z,98600.36
2019-01-23T01:31:19.889Z,98589.26
2019-01-23T01:31:55.421Z,98589.26
2019-01-23T01:32:30.863Z,98601.80
2019-01-23T01:33:06.339Z,98596.30
2019-01-23T01:33:41.823Z,98599.34
2019-01-23T01:34:17.508Z,98596.09
2019-01-23T01:34:53.218Z,98594.05
2019-01-23T01:35:28.668Z,98599.39
2019-01-23T01:36:04.124Z,98598.33
2019-01-23T01:36:39.922Z,98598.03
2019-01-23T01:37:15.377Z,98597.17
2019-01-23T01:37:51.062Z,98598.42
2019-01-23T01:38:26.489Z,98598.25
2019-01-23T01:39:01.947Z,98599.22
2019-01-23T01:39:37.416Z,98598.02
2019-01-23T01:40:13.967Z,98600.29
2019-01-23T01:40:49.650Z,98599.31
2019-01-23T01:41:25.094Z,98599.80
2019-01-23T01:42:00.798Z,98593.03
2019-01-23T01:42:36.250Z,98594.61
2019-01-23T01:43:11.961Z,98598.42
2019-01-23T01:43:47.430Z,98594.61
2019-01-23T01:44:22.872Z,98595.94
2019-01-23T01:44:58.304Z,98587.11
2019-01-23T01:45:33.749Z,98599.86
2019-01-23T01:46:09.282Z,98599.05
2019-01-23T01:46:45.131Z,98595.86
2019-01-23T01:47:20.525Z,98599.88
2019-01-23T01:47:56.270Z,98589.52
2019-01-23T01:48:31.695Z,98599.17
2019-01-23T01:49:07.512Z,98599.50
2019-01-23T01:49:42.957Z,98596.33
2019-01-23T01:50:21.860Z,98593.03
2019-01-23T01:50:57.577Z,98599.86
2019-01-23T01:51:33.269Z,98590.09
2019-01-23T01:52:08.709Z,98596.48
2019-01-23T01:52:44.131Z,98591.91
2019-01-23T01:53:19.561Z,98593.61
2019-01-23T01:53:55.578Z,98587.80
2019-01-23T01:54:31.267Z,98593.66
2019-01-23T01:55:08.082Z,98591.48
2019-01-23T01:55:43.834Z,98587.60
2019-01-23T01:56:19.266Z,98588.72
2019-01-23T01:56:55.253Z,98584.84
2019-01-23T01:57:30.687Z,98591.33
2019-01-23T01:58:10.016Z,98587.00
2019-01-23T01:58:43.876Z,98581.23
2019-01-23T01:59:19.916Z,98580.45
2019-01-23T01:59:55.729Z,98584.16
2019-01-23T02:00:31.447Z,98586.55
2019-01-23T02:01:07.197Z,98580.70
2019-01-23T02:01:42.921Z,98573.61
2019-01-23T02:02:18.344Z,98582.38
2019-01-23T02:02:53.778Z,98570.73
2019-01-23T02:03:30.349Z,98580.47
2019-01-23T02:04:05.945Z,98574.16
2019-01-23T02:04:41.631Z,98575.43
2019-01-23T02:05:17.843Z,98574.53
2019-01-23T02:05:53.262Z,98572.28
2019-01-23T02:06:28.711Z,98573.64
2019-01-23T02:07:04.342Z,98573.91
2019-01-23T02:07:40.033Z,98572.47
2019-01-23T02:08:15.774Z,98573.01
2019-01-23T02:08:51.278Z,98571.39
2019-01-23T02:09:26.758Z,98571.05
2019-01-23T02:10:02.445Z,98571.52
2019-01-23T02:10:37.911Z,98570.79
2019-01-23T02:11:13.360Z,98568.38
2019-01-23T02:11:48.885Z,98561.33
2019-01-23T02:12:24.331Z,98570.20
2019-01-23T02:12:59.762Z,98567.28
2019-01-23T02:13:35.195Z,98567.16
2019-01-23T02:14:10.670Z,98566.58
2019-01-23T02:14:46.123Z,98565.17
2019-01-23T02:15:21.603Z,98558.51
2019-01-23T02:15:57.623Z,98560.20
2019-01-23T02:16:33.330Z,98561.92
2019-01-23T02:17:08.879Z,98557.05
2019-01-23T02:17:44.496Z,98560.17
2019-01-23T02:18:19.939Z,98563.08
2019-01-23T02:18:55.364Z,98556.46
2019-01-23T02:19:30.848Z,98559.08
2019-01-23T02:20:09.209Z,98560.86
2019-01-23T02:20:44.666Z,98553.68
2019-01-23T02:21:20.436Z,98548.91
2019-01-23T02:21:55.874Z,98550.30
2019-01-23T02:22:31.585Z,98551.07
2019-01-23T02:23:07.026Z,98555.33
2019-01-23T02:23:42.525Z,98551.61
2019-01-23T02:24:18.325Z,98557.91
2019-01-23T02:24:54.069Z,98550.84
2019-01-23T02:25:29.501Z,98548.17
2019-01-23T02:26:04.938Z,98546.11
2019-01-23T02:26:40.392Z,98544.73
2019-01-23T02:27:15.915Z,98556.42
2019-01-23T02:27:51.608Z,98551.03
2019-01-23T02:28:27.053Z,98546.86
2019-01-23T02:29:09.320Z,98543.46
2019-01-23T02:29:39.955Z,98550.69
2019-01-23T02:30:17.027Z,98551.20
2019-01-23T02:30:52.717Z,98546.72
2019-01-23T02:31:28.467Z,98543.05
2019-01-23T02:32:04.149Z,98546.83
2019-01-23T02:32:39.594Z,98547.71
2019-01-23T02:33:15.036Z,98540.06
2019-01-23T02:33:50.501Z,98544.30
2019-01-23T02:34:26.191Z,98541.70
2019-01-23T02:35:01.726Z,98541.29
2019-01-23T02:35:37.184Z,98542.44
2019-01-23T02:36:12.716Z,98545.43
2019-01-23T02:36:48.412Z,98537.37
2019-01-23T02:37:23.841Z,98541.72
2019-01-23T02:37:59.270Z,98545.56
2019-01-23T02:38:34.708Z,98541.84
2019-01-23T02:39:10.421Z,98542.60
2019-01-23T02:39:45.897Z,98538.27
2019-01-23T02:40:22.656Z,98536.63
2019-01-23T02:40:58.705Z,98535.42
2019-01-23T02:41:34.138Z,98529.20
2019-01-23T02:42:09.837Z,98532.48
2019-01-23T02:42:45.261Z,98534.73
2019-01-23T02:43:20.688Z,98532.44
2019-01-23T02:43:56.118Z,98527.20
2019-01-23T02:44:31.549Z,98529.48
2019-01-23T02:45:07.272Z,98530.71
2019-01-23T02:45:42.727Z,98530.00
2019-01-23T02:46:18.710Z,98524.83
2019-01-23T02:46:54.410Z,98523.70
2019-01-23T02:47:29.862Z,98530.05
2019-01-23T02:48:05.941Z,98521.43
2019-01-23T02:48:41.645Z,98530.91
2019-01-23T02:49:17.343Z,98528.60
2019-01-23T02:49:53.140Z,98515.63
2019-01-23T02:50:28.610Z,98523.57
2019-01-23T02:51:04.067Z,98519.34
2019-01-23T02:51:39.551Z,98518.53
2019-01-23T02:52:15.224Z,98519.74
2019-01-23T02:52:50.636Z,98523.84
2019-01-23T02:53:26.074Z,98520.05
2019-01-23T02:54:01.519Z,98518.88
2019-01-23T02:54:37.210Z,98523.00
2019-01-23T02:55:12.703Z,98519.22
2019-01-23T02:55:48.141Z,98515.67
2019-01-23T02:56:23.854Z,98516.61
2019-01-23T02:56:59.622Z,98515.95
2019-01-23T02:57:35.064Z,98515.37
2019-01-23T02:58:10.893Z,98520.02
2019-01-23T02:58:46.353Z,98512.11
2019-01-23T02:59:21.780Z,98515.63
2019-01-23T02:59:57.244Z,98519.38
2019-01-23T03:00:34.025Z,98508.50
2019-01-23T03:01:09.634Z,98511.68
2019-01-23T03:01:45.127Z,98508.25
2019-01-23T03:02:20.536Z,98510.06
2019-01-23T03:02:56.240Z,98513.46
2019-01-23T03:03:31.994Z,98503.86
2019-01-23T03:04:07.479Z,98511.47
2019-01-23T03:04:42.984Z,98505.56
2019-01-23T03:05:19.556Z,98501.30
2019-01-23T03:05:54.967Z,98505.06
2019-01-23T03:06:30.447Z,98506.65
2019-01-23T03:07:05.928Z,98506.23
2019-01-23T03:07:41.502Z,98507.47
2019-01-23T03:08:16.958Z,98496.54
2019-01-23T03:08:52.486Z,98499.17
2019-01-23T03:09:27.928Z,98493.29
2019-01-23T03:10:03.445Z,98494.53
2019-01-23T03:10:38.988Z,98496.92
2019-01-23T03:11:14.442Z,98496.06
2019-01-23T03:11:50.447Z,98492.53
2019-01-23T03:12:25.875Z,98496.41
2019-01-23T03:13:01.637Z,98487.48
2019-01-23T03:13:37.160Z,98490.17
2019-01-23T03:14:12.897Z,98486.83
2019-01-23T03:14:48.347Z,98483.50
2019-01-23T03:15:24.076Z,98491.17
2019-01-23T03:15:59.854Z,98494.57
2019-01-23T03:16:35.550Z,98488.83
2019-01-23T03:17:11.081Z,98491.13
2019-01-23T03:17:46.591Z,98488.16
2019-01-23T03:18:22.157Z,98487.16
2019-01-23T03:18:57.594Z,98483.55
2019-01-23T03:19:33.381Z,98485.31
2019-01-23T03:20:11.040Z,98485.96
2019-01-23T03:20:46.908Z,98481.58
2019-01-23T03:21:22.955Z,98480.98
2019-01-23T03:21:58.412Z,98481.95
2019-01-23T03:22:33.949Z,98482.06
2019-01-23T03:23:09.665Z,98473.27
2019-01-23T03:23:45.253Z,98480.66
2019-01-23T03:24:21.005Z,98478.59
2019-01-23T03:24:57.023Z,98471.52
2019-01-23T03:25:32.613Z,98479.70
2019-01-23T03:26:08.481Z,98480.17
2019-01-23T03:26:43.939Z,98478.06
2019-01-23T03:27:19.362Z,98478.86
2019-01-23T03:27:54.786Z,98478.88
2019-01-23T03:28:30.228Z,98477.08
2019-01-23T03:29:05.687Z,98471.72
2019-01-23T03:29:41.569Z,98470.19
2019-01-23T03:30:19.446Z,98468.28
2019-01-23T03:30:54.924Z,98477.04
2019-01-23T03:31:30.361Z,98475.09
2019-01-23T03:32:05.923Z,98469.38
2019-01-23T03:32:41.391Z,98472.98
2019-01-23T03:33:16.854Z,98466.46
2019-01-23T03:33:52.270Z,98467.91
2019-01-23T03:34:28.260Z,98464.73
2019-01-23T03:35:03.829Z,98459.42
2019-01-23T03:35:39.375Z,98466.17
2019-01-23T03:36:14.838Z,98465.19
2019-01-23T03:36:50.534Z,98462.66
2019-01-23T03:37:25.987Z,98469.14
2019-01-23T03:38:01.432Z,98467.80
2019-01-23T03:38:36.860Z,98467.05
2019-01-23T03:39:12.635Z,98466.31
2019-01-23T03:39:48.066Z,98463.13
2019-01-23T03:40:23.576Z,98463.61
2019-01-23T03:40:59.010Z,98464.49
2019-01-23T03:41:35.001Z,98462.09
2019-01-23T03:42:10.737Z,98460.23
2019-01-23T03:42:46.175Z,98466.38
2019-01-23T03:43:21.604Z,98461.08
2019-01-23T03:43:57.049Z,98464.39
2019-01-23T03:44:32.490Z,98470.00
2019-01-23T03:45:09.523Z,98461.12
2019-01-23T03:45:45.047Z,98466.50
2019-01-23T03:46:20.481Z,98468.02
2019-01-23T03:46:55.915Z,98469.18
2019-01-23T03:47:31.355Z,98465.58
2019-01-23T03:48:06.926Z,98462.67
2019-01-23T03:48:42.465Z,98461.02
2019-01-23T03:49:18.273Z,98464.35
2019-01-23T03:49:53.694Z,98464.76
2019-01-23T03:50:29.136Z,98463.77
2019-01-23T03:51:04.604Z,98465.30
2019-01-23T03:51:40.035Z,98462.05
2019-01-23T03:52:15.666Z,98461.38
2019-01-23T03:52:51.175Z,98468.20
2019-01-23T03:53:26.612Z,98461.95
2019-01-23T03:54:02.077Z,98458.54
2019-01-23T03:54:37.572Z,98460.67
2019-01-23T03:55:13.679Z,98459.39
2019-01-23T03:55:49.135Z,98458.16
2019-01-23T03:56:24.889Z,98464.06
2019-01-23T03:57:00.453Z,98460.69
2019-01-23T03:57:35.962Z,98463.61
2019-01-23T03:58:11.719Z,98465.80
2019-01-23T03:58:47.390Z,98456.28
2019-01-23T03:59:23.076Z,98462.24
2019-01-23T03:59:58.773Z,98466.44
2019-01-23T04:00:34.206Z,98460.95
2019-01-23T04:01:09.982Z,98455.09
2019-01-23T04:01:45.710Z,98457.17
2019-01-23T04:02:21.500Z,98457.98
2019-01-23T04:02:57.188Z,98462.70
2019-01-23T04:03:32.621Z,98454.30
2019-01-23T04:04:08.112Z,98456.72
2019-01-23T04:04:43.648Z,98450.97
2019-01-23T04:05:19.092Z,98453.89
2019-01-23T04:05:55.058Z,98453.13
2019-01-23T04:06:30.494Z,98443.38
2019-01-23T04:07:05.929Z,98450.69
2019-01-23T04:07:41.484Z,98454.94
2019-01-23T04:08:16.934Z,98458.82
2019-01-23T04:08:52.390Z,98452.11
2019-01-23T04:09:27.921Z,98459.16
2019-01-23T04:10:03.581Z,98445.22
2019-01-23T04:10:39.066Z,98447.28
2019-01-23T04:11:14.566Z,98446.16
2019-01-23T04:11:50.456Z,98451.25
2019-01-23T04:12:25.894Z,98442.69
2019-01-23T04:13:01.382Z,98443.50
2019-01-23T04:13:37.065Z,98447.04
2019-01-23T04:14:13.210Z,98448.33
2019-01-23T04:14:48.662Z,98448.03
2019-01-23T04:15:24.110Z,98446.30
2019-01-23T04:15:59.809Z,98441.01
2019-01-23T04:16:35.623Z,98441.11
2019-01-23T04:17:11.364Z,98439.00
2019-01-23T04:17:47.168Z,98443.19
2019-01-23T04:18:22.619Z,98437.73
2019-01-23T04:18:58.044Z,98441.25
2019-01-23T04:19:33.469Z,98442.78
2019-01-23T04:20:12.293Z,98443.77
2019-01-23T04:20:47.774Z,98441.34
2019-01-23T04:21:23.496Z,98441.36
2019-01-23T04:21:58.928Z,98437.59
2019-01-23T04:22:34.376Z,98436.83
2019-01-23T04:23:10.179Z,98436.78
2019-01-23T04:23:45.668Z,98436.83
2019-01-23T04:24:21.097Z,98437.71
2019-01-23T04:24:56.776Z,98440.55
2019-01-23T04:25:32.218Z,98433.23
2019-01-23T04:26:07.716Z,98436.77
2019-01-23T04:26:43.492Z,98430.29
2019-01-23T04:27:19.511Z,98434.20
2019-01-23T04:27:55.291Z,98427.56
2019-01-23T04:28:30.736Z,98429.55
2019-01-23T04:29:06.235Z,98432.61
2019-01-23T04:29:41.822Z,98436.77
2019-01-23T04:30:19.831Z,98432.76
2019-01-23T04:30:55.579Z,98429.11
2019-01-23T04:31:31.094Z,98431.36
2019-01-23T04:32:06.853Z,98425.13
2019-01-23T04:32:42.466Z,98431.13
2019-01-23T04:33:17.944Z,98428.42
2019-01-23T04:33:53.675Z,98435.89
2019-01-23T04:34:29.125Z,98428.88
2019-01-23T04:35:05.313Z,98425.94
2019-01-23T04:35:40.827Z,98431.84
2019-01-23T04:36:16.362Z,98426.34
2019-01-23T04:36:52.052Z,98425.58
2019-01-23T04:37:27.779Z,98431.55
2019-01-23T04:38:03.266Z,98429.83
2019-01-23T04:38:39.050Z,98427.90
2019-01-23T04:39:14.771Z,98422.78
2019-01-23T04:39:50.645Z,98420.63
2019-01-23T04:40:26.357Z,98423.77
2019-01-23T04:41:01.790Z,98424.63
2019-01-23T04:41:37.343Z,98421.77
2019-01-23T04:42:12.929Z,98423.06
2019-01-23T04:42:48.398Z,98420.51
2019-01-23T04:43:24.539Z,98422.78
2019-01-23T04:44:00.273Z,98423.73
2019-01-23T04:44:36.270Z,98419.57
2019-01-23T04:45:12.827Z,98422.06
2019-01-23T04:45:48.540Z,98419.53
2019-01-23T04:46:23.972Z,98419.41
2019-01-23T04:46:59.399Z,98416.48
2019-01-23T04:47:34.985Z,98419.88
2019-01-23T04:48:10.835Z,98419.28
2019-01-23T04:48:46.696Z,98422.87
2019-01-23T04:49:22.115Z,98419.66
2019-01-23T04:49:57.557Z,98419.36
2019-01-23T04:50:34.630Z,98416.87
2019-01-23T04:51:34.984Z,98407.70
2019-01-23T04:52:15.970Z,98416.22
2019-01-23T04:53:12.317Z,98414.95
2019-01-23T04:53:49.039Z,98413.38
2019-01-23T04:54:24.566Z,98407.89
2019-01-23T04:55:00.262Z,98410.50
2019-01-23T04:55:37.845Z,98411.67
2019-01-23T04:56:13.839Z,98411.34
2019-01-23T04:56:49.573Z,98411.65
2019-01-23T04:57:25.005Z,98407.84
2019-01-23T04:58:00.469Z,98411.36
2019-01-23T04:58:36.540Z,98407.16
2019-01-23T04:59:12.309Z,98414.38
2019-01-23T04:59:48.069Z,98410.66
2019-01-23T05:00:25.272Z,98417.81
2019-01-23T05:01:01.051Z,98420.80
2019-01-23T05:01:36.524Z,98409.03
2019-01-23T05:02:12.058Z,98418.54
2019-01-23T05:02:47.797Z,98412.62
2019-01-23T05:03:23.578Z,98415.77
2019-01-23T05:03:59.033Z,98415.77
2019-01-23T05:04:34.782Z,98412.48
2019-01-23T05:05:10.647Z,98413.19
2019-01-23T05:05:46.414Z,98407.58
2019-01-23T05:06:22.148Z,98405.19
2019-01-23T05:06:57.864Z,98409.16
2019-01-23T05:07:33.646Z,98411.67
2019-01-23T05:08:09.422Z,98410.13
2019-01-23T05:08:44.891Z,98402.72
2019-01-23T05:09:20.894Z,98409.97
2019-01-23T05:09:56.630Z,98408.78
2019-01-23T05:10:32.346Z,98402.61
2019-01-23T05:11:07.837Z,98406.87
2019-01-23T05:11:43.313Z,98403.47
2019-01-23T05:12:18.789Z,98404.42
2019-01-23T05:12:54.498Z,98407.54
2019-01-23T05:13:30.222Z,98402.46
2019-01-23T05:14:06.061Z,98401.75
2019-01-23T05:14:41.839Z,98402.48
2019-01-23T05:15:17.593Z,98405.50
2019-01-23T05:15:53.087Z,98397.84
2019-01-23T05:16:28.794Z,98396.70
2019-01-23T05:17:04.493Z,98396.29
2019-01-23T05:17:39.944Z,98397.37
2019-01-23T05:18:15.703Z,98397.28
2019-01-23T05:18:51.161Z,98394.14
2019-01-23T05:19:26.922Z,98402.30
2019-01-23T05:20:02.347Z,98397.41
2019-01-23T05:20:37.866Z,98399.09
2019-01-23T05:21:13.985Z,98396.59
2019-01-23T05:21:49.619Z,98395.41
2019-01-23T05:22:25.067Z,98396.14
2019-01-23T05:23:00.548Z,98396.86
2019-01-23T05:23:36.075Z,98389.22
2019-01-23T05:24:11.621Z,98394.17
2019-01-23T05:24:47.084Z,98391.02
2019-01-23T05:25:22.878Z,98394.14
2019-01-23T05:25:58.306Z,98386.41
2019-01-23T05:26:34.772Z,98397.53
2019-01-23T05:27:10.340Z,98387.95
2019-01-23T05:27:45.825Z,98388.80
2019-01-23T05:28:21.552Z,98399.38
2019-01-23T05:28:56.993Z,98388.69
2019-01-23T05:29:32.425Z,98390.11
2019-01-23T05:30:11.872Z,98392.77
2019-01-23T05:30:47.442Z,98387.29
2019-01-23T05:31:22.857Z,98387.78
2019-01-23T05:31:58.315Z,98389.52
2019-01-23T05:32:34.012Z,98351.80
2019-01-23T05:33:09.544Z,98389.88
2019-01-23T05:33:45.101Z,98388.81
2019-01-23T05:34:20.542Z,98383.70
2019-01-23T05:34:56.226Z,98379.25
2019-01-23T05:35:31.674Z,98388.23
2019-01-23T05:36:07.326Z,98386.00
2019-01-23T05:36:42.768Z,98383.97
2019-01-23T05:37:18.729Z,98382.75
2019-01-23T05:37:54.164Z,98383.30
2019-01-23T05:38:29.766Z,98380.84
2019-01-23T05:39:08.282Z,98377.31
2019-01-23T05:39:44.944Z,98374.34
2019-01-23T05:40:20.501Z,98376.09
2019-01-23T05:40:56.255Z,98375.28
2019-01-23T05:41:32.006Z,98369.96
2019-01-23T05:42:07.733Z,98373.82
2019-01-23T05:42:43.185Z,98373.98
2019-01-23T05:43:18.643Z,98376.28
2019-01-23T05:43:54.076Z,98369.30
2019-01-23T05:44:29.584Z,98368.02
2019-01-23T05:45:05.928Z,98370.80
2019-01-23T05:45:41.693Z,98364.18
2019-01-23T05:46:17.157Z,98369.45
2019-01-23T05:46:52.586Z,98373.51
2019-01-23T05:47:28.017Z,98367.75
2019-01-23T05:48:03.449Z,98368.16
2019-01-23T05:48:39.031Z,98368.42
2019-01-23T05:49:14.515Z,98367.77
2019-01-23T05:49:49.953Z,98373.36
2019-01-23T05:50:25.377Z,98368.25
2019-01-23T05:51:01.104Z,98366.05
2019-01-23T05:51:36.611Z,98365.80
2019-01-23T05:52:12.460Z,98370.37
2019-01-23T05:52:49.021Z,98372.51
2019-01-23T05:53:24.518Z,98372.51
2019-01-23T05:53:59.984Z,98366.97
2019-01-23T05:54:35.449Z,98366.89
2019-01-23T05:55:12.243Z,98370.05
2019-01-23T05:55:47.718Z,98371.23
2019-01-23T05:56:23.169Z,98366.89
2019-01-23T05:56:58.969Z,98363.77
2019-01-23T05:57:34.435Z,98366.69
2019-01-23T05:58:11.960Z,98364.78
2019-01-23T05:58:47.747Z,98361.64
2019-01-23T05:59:23.182Z,98365.50
2019-01-23T06:00:02.382Z,98363.06
2019-01-23T06:00:36.066Z,98361.77
2019-01-23T06:01:11.853Z,98359.36
2019-01-23T06:01:47.642Z,98364.72
2019-01-23T06:02:23.072Z,98360.02
2019-01-23T06:02:58.512Z,98357.84
2019-01-23T06:03:34.153Z,98359.23
2019-01-23T06:04:10.050Z,98362.08
2019-01-23T06:04:46.464Z,98352.61
2019-01-23T06:05:22.311Z,98352.61
2019-01-23T06:05:58.085Z,98358.83
2019-01-23T06:06:33.804Z,98360.19
2019-01-23T06:07:09.928Z,98349.59
2019-01-23T06:07:45.723Z,98356.67
2019-01-23T06:08:21.748Z,98352.33
2019-01-23T06:08:57.232Z,98359.46
2019-01-23T06:09:32.977Z,98359.87
2019-01-23T06:10:08.857Z,98354.14
2019-01-23T06:10:44.406Z,98359.31
2019-01-23T06:11:20.816Z,98351.78
2019-01-23T06:11:56.608Z,98354.81
2019-01-23T06:12:32.057Z,98356.25
2019-01-23T06:13:07.538Z,98360.38
2019-01-23T06:13:43.069Z,98361.00
2019-01-23T06:14:18.594Z,98364.08
2019-01-23T06:14:54.326Z,98351.26
2019-01-23T06:15:29.779Z,98360.27
2019-01-23T06:16:05.268Z,98360.87
2019-01-23T06:16:40.772Z,98357.27
2019-01-23T06:17:16.268Z,98359.63
2019-01-23T06:17:51.710Z,98361.46
2019-01-23T06:18:27.142Z,98360.16
2019-01-23T06:19:02.614Z,98357.03
2019-01-23T06:19:38.154Z,98361.44
2019-01-23T06:20:16.245Z,98362.11
2019-01-23T06:20:51.706Z,98358.28
2019-01-23T06:21:27.144Z,98352.02
2019-01-23T06:22:02.904Z,98363.02
2019-01-23T06:22:38.489Z,98357.25
2019-01-23T06:23:13.981Z,98360.55
2019-01-23T06:23:49.436Z,98355.20
2019-01-23T06:24:24.902Z,98361.70
2019-01-23T06:25:00.351Z,98359.30
2019-01-23T06:25:35.840Z,98352.07
2019-01-23T06:26:11.340Z,98356.06
2019-01-23T06:26:47.127Z,98356.79
2019-01-23T06:27:22.573Z,98355.47
2019-01-23T06:27:58.584Z,98356.92
2019-01-23T06:28:34.370Z,98357.77
2019-01-23T06:29:09.994Z,98358.01
2019-01-23T06:29:45.482Z,98352.71
2019-01-23T06:30:25.657Z,98356.67
2019-01-23T06:31:01.098Z,98355.73
2019-01-23T06:31:37.354Z,98357.53
2019-01-23T06:32:12.894Z,98357.51
2019-01-23T06:32:48.375Z,98365.53
2019-01-23T06:33:24.139Z,98354.56
2019-01-23T06:33:59.846Z,98354.59
2019-01-23T06:34:35.309Z,98360.09
2019-01-23T06:35:10.814Z,98356.14
2019-01-23T06:35:46.597Z,98355.30
2019-01-23T06:36:22.310Z,98356.79
2019-01-23T06:36:58.062Z,98359.03
2019-01-23T06:37:33.488Z,98356.68
2019-01-23T06:38:09.000Z,98358.92
2019-01-23T06:38:44.594Z,98356.20
2019-01-23T06:39:20.064Z,98353.41
2019-01-23T06:39:55.770Z,98362.50
2019-01-23T06:40:31.759Z,98359.16
2019-01-23T06:41:07.237Z,98358.92
2019-01-23T06:41:42.847Z,98356.25
2019-01-23T06:42:18.372Z,98354.30
2019-01-23T06:42:54.117Z,98361.64
2019-01-23T06:43:29.851Z,98359.46
2019-01-23T06:44:05.854Z,98353.88
2019-01-23T06:44:41.748Z,98358.62
2019-01-23T06:45:17.767Z,98352.87
2019-01-23T06:45:53.468Z,98355.20
2019-01-23T06:46:29.366Z,98360.33
2019-01-23T06:47:04.815Z,98349.85
2019-01-23T06:47:40.679Z,98355.06
2019-01-23T06:48:16.173Z,98358.25
2019-01-23T06:48:51.660Z,98359.38
2019-01-23T06:49:30.014Z,98356.22
2019-01-23T06:50:05.674Z,98355.09
2019-01-23T06:50:41.460Z,98356.81
2019-01-23T06:51:16.923Z,98354.41
2019-01-23T06:51:52.353Z,98351.47
2019-01-23T06:52:27.791Z,98355.36
2019-01-23T06:53:03.244Z,98356.63
2019-01-23T06:53:39.063Z,98356.60
2019-01-23T06:54:14.621Z,98359.28
2019-01-23T06:54:50.080Z,98352.60
2019-01-23T06:55:25.802Z,98355.68
2019-01-23T06:56:01.357Z,98352.58
2019-01-23T06:56:36.976Z,98352.15
2019-01-23T06:57:12.685Z,98346.26
2019-01-23T06:57:48.299Z,98351.84
2019-01-23T06:58:24.073Z,98353.17
2019-01-23T06:58:59.837Z,98345.73
2019-01-23T06:59:35.406Z,98351.90
2019-01-23T07:00:17.445Z,98349.81
2019-01-23T07:00:53.015Z,98346.37